Time;durP1;ratioP1;P1;durP2;ratioP2;P2;SDS_P1;SDS_P2;PMS_P1;PMS_P2;Temp;Humidity;BMP_temperature;BMP_pressure;BME280_temperature;BME280_humidity;BME280_pressure;Samples;Min_cycle;Max_cycle;Signal;HPM_P1;HPM_P2
2022/05/08 00:02:22;;;;;;;8.73;6.85;;;;;;;11.42;84.08;100167.16;5114538;28;20111;-73
2022/05/08 00:04:51;;;;;;;7.55;6.18;;;;;;;11.45;83.69;100170.47;5114670;28;20016;-73
2022/05/08 00:07:20;;;;;;;10.00;6.88;;;;;;;11.46;83.73;100180.00;5114351;28;20460;-73
2022/05/08 00:09:46;;;;;;;10.88;6.43;;;;;;;11.32;83.89;100160.63;5114759;28;20024;-73
2022/05/08 00:12:13;;;;;;;7.50;6.70;;;;;;;11.29;84.71;100171.16;5114404;28;20024;-73
2022/05/08 00:14:40;;;;;;;12.25;7.18;;;;;;;11.26;84.94;100169.56;5114589;28;20073;-73
2022/05/08 00:17:06;;;;;;;10.18;6.75;;;;;;;11.15;85.17;100159.53;5113117;28;20425;-73
2022/05/08 00:19:31;;;;;;;8.55;6.60;;;;;;;11.17;85.59;100159.50;5114514;28;20031;-73
2022/05/08 00:21:57;;;;;;;9.52;7.07;;;;;;;11.09;85.50;100157.19;5114623;28;20031;-73
2022/05/08 00:24:22;;;;;;;11.00;7.50;;;;;;;11.12;85.88;100162.28;5114459;28;20019;-73
2022/05/08 00:26:48;;;;;;;11.70;7.47;;;;;;;11.08;86.35;100160.72;5114439;28;20028;-73
2022/05/08 00:29:15;;;;;;;9.80;8.20;;;;;;;11.07;86.58;100158.16;5112817;28;20038;-73
2022/05/08 00:31:41;;;;;;;10.63;8.07;;;;;;;11.06;86.66;100153.88;5114093;28;20042;-73
2022/05/08 00:34:06;;;;;;;13.63;8.00;;;;;;;11.04;87.15;100148.72;5114314;28;20030;-73
2022/05/08 00:36:32;;;;;;;10.50;8.05;;;;;;;11.07;87.01;100159.00;5113970;28;20387;-73
2022/05/08 00:38:57;;;;;;;8.80;7.90;;;;;;;11.07;87.52;100169.44;5114023;28;20464;-73
2022/05/08 00:41:22;;;;;;;13.52;9.20;;;;;;;10.98;87.08;100152.41;5113680;28;20034;-73
2022/05/08 00:43:48;;;;;;;11.25;8.75;;;;;;;11.02;87.04;100149.69;5113944;28;20105;-73
2022/05/08 00:46:14;;;;;;;11.40;8.73;;;;;;;11.02;87.29;100158.34;5113668;28;20107;-73
2022/05/08 00:48:41;;;;;;;11.35;8.27;;;;;;;11.09;87.33;100165.03;5114026;28;20050;-73
2022/05/08 00:51:09;;;;;;;14.30;9.18;;;;;;;11.04;87.54;100150.47;5113840;28;20019;-73
2022/05/08 00:53:40;;;;;;;13.75;8.43;;;;;;;11.05;87.62;100168.66;5114154;28;20034;-73
2022/05/08 00:56:07;;;;;;;12.38;8.85;;;;;;;10.96;87.47;100148.19;5113737;28;20036;-73
2022/05/08 00:58:37;;;;;;;11.15;7.97;;;;;;;10.97;88.20;100150.72;5113054;28;20114;-73
2022/05/08 01:01:04;;;;;;;9.63;8.13;;;;;;;10.94;87.81;100152.59;5113467;28;20020;-73
2022/05/08 01:03:31;;;;;;;13.27;8.77;;;;;;;10.89;88.22;100150.19;5113529;27;20043;-73
2022/05/08 01:05:57;;;;;;;10.75;8.75;;;;;;;10.93;88.54;100156.13;5112378;28;20383;-73
2022/05/08 01:08:24;;;;;;;12.55;8.85;;;;;;;10.82;88.89;100143.50;5113277;28;20384;-73
2022/05/08 01:10:50;;;;;;;10.88;8.13;;;;;;;10.84;89.66;100146.06;5113382;28;20024;-73
2022/05/08 01:13:16;;;;;;;10.68;8.43;;;;;;;10.82;89.57;100146.09;5113163;28;20420;-73
2022/05/08 01:15:46;;;;;;;13.15;8.80;;;;;;;10.86;89.89;100154.66;5113231;28;20051;-73
2022/05/08 01:18:12;;;;;;;;;;;;;;;10.85;90.03;100158.19;5113637;28;20059;-73
2022/05/08 01:20:39;;;;;;;11.10;8.20;;;;;;;10.74;89.99;100142.94;5113318;28;19908;-73
2022/05/08 01:23:06;;;;;;;10.05;7.28;;;;;;;10.73;89.78;100146.47;5113267;28;20376;-73
2022/05/08 01:25:45;;;;;;;12.50;7.95;;;;;;;10.74;89.72;100150.78;5113006;28;20027;-73
2022/05/08 01:28:11;;;;;;;10.40;7.85;;;;;;;10.74;90.38;100150.78;5112992;28;20020;-73
2022/05/08 01:30:40;;;;;;;11.48;8.93;;;;;;;10.73;90.71;100156.91;5113106;28;20027;-73
2022/05/08 01:33:05;;;;;;;11.55;8.05;;;;;;;10.68;90.35;100149.25;5112969;28;20020;-73
2022/05/08 01:35:31;;;;;;;11.18;7.82;;;;;;;10.66;90.59;100153.69;5112845;28;20476;-73
2022/05/08 01:37:56;;;;;;;11.13;8.88;;;;;;;10.58;90.49;100141.88;5113267;28;20030;-73
2022/05/08 01:40:21;;;;;;;12.57;8.15;;;;;;;10.56;90.95;100144.53;5112599;28;20059;-73
2022/05/08 01:42:47;;;;;;;9.60;7.72;;;;;;;10.60;91.12;100153.06;5113046;28;20020;-73
2022/05/08 01:45:12;;;;;;;10.30;8.23;;;;;;;10.46;90.78;100127.56;5112829;28;20034;-73
2022/05/08 01:50:23;;;;;;;13.45;8.35;;;;;;;10.55;90.74;100147.19;5112463;28;20182;-73
2022/05/08 01:52:49;;;;;;;11.98;8.07;;;;;;;10.49;90.88;100141.31;5112635;28;20027;-73
2022/05/08 01:55:15;;;;;;;10.13;7.88;;;;;;;10.48;90.81;100155.22;5112359;28;20098;-73
2022/05/08 01:57:40;;;;;;;10.30;7.95;;;;;;;10.33;91.88;100145.41;5112777;28;20114;-73
2022/05/08 02:00:06;;;;;;;12.68;7.88;;;;;;;10.35;91.92;100155.75;5112913;28;20023;-73
2022/05/08 02:02:32;;;;;;;9.27;8.02;;;;;;;10.30;92.86;100153.34;5112372;28;20369;-73
2022/05/08 02:04:58;;;;;;;11.40;7.65;;;;;;;10.32;93.34;100154.13;5112609;28;20028;-73
2022/05/08 02:07:24;;;;;;;12.30;8.18;;;;;;;10.28;92.64;100155.16;5112235;28;20035;-73
2022/05/08 02:09:49;;;;;;;10.07;8.40;;;;;;;10.25;92.60;100152.66;5112266;28;20019;-73
2022/05/08 02:12:15;;;;;;;10.82;7.90;;;;;;;10.25;92.81;100160.47;5111449;28;20552;-73
2022/05/08 02:14:43;;;;;;;10.32;8.15;;;;;;;10.17;92.89;100152.91;5112496;28;20499;-73
2022/05/08 02:17:09;;;;;;;9.25;7.45;;;;;;;10.14;92.79;100153.00;5112440;28;20092;-73
2022/05/08 02:19:34;;;;;;;13.48;7.45;;;;;;;10.17;93.15;100155.50;5112165;28;20039;-73
2022/05/08 02:21:59;;;;;;;11.63;7.35;;;;;;;10.06;93.66;100154.19;5112293;28;20040;-73
2022/05/08 02:24:25;;;;;;;9.98;7.13;;;;;;;10.04;93.97;100149.06;5111974;28;20110;-73
2022/05/08 02:26:50;;;;;;;11.07;7.43;;;;;;;9.94;93.66;100140.75;5112402;28;20529;-73
2022/05/08 02:29:15;;;;;;;9.25;7.20;;;;;;;10.00;94.04;100150.06;5112078;28;20024;-74
2022/05/08 02:31:41;;;;;;;9.85;7.20;;;;;;;10.04;94.14;100159.47;5112146;28;20027;-73
2022/05/08 02:34:07;;;;;;;9.70;7.03;;;;;;;9.94;94.03;100152.88;5112174;28;20064;-73
2022/05/08 02:36:32;;;;;;;13.57;7.70;;;;;;;9.96;94.06;100162.34;5111940;28;20481;-73
2022/05/08 02:38:57;;;;;;;8.55;6.90;;;;;;;9.91;94.35;100147.81;5111956;28;20479;-73
2022/05/08 02:41:23;;;;;;;8.02;7.13;;;;;;;9.93;94.64;100151.19;5112090;28;20036;-73
2022/05/08 02:43:48;;;;;;;10.00;7.13;;;;;;;9.95;94.62;100155.44;5112243;28;20108;-73
2022/05/08 02:46:14;;;;;;;7.15;6.45;;;;;;;9.97;94.49;100165.78;5112499;28;20038;-73
2022/05/08 02:48:39;;;;;;;8.25;6.88;;;;;;;9.86;94.60;100155.78;5111879;28;20611;-73
2022/05/08 02:51:05;;;;;;;10.32;7.25;;;;;;;9.91;94.78;100164.28;5112006;28;20042;-73
2022/05/08 02:53:31;;;;;;;8.48;6.53;;;;;;;9.90;94.84;100164.31;5111789;28;20028;-73
2022/05/08 02:58:41;;;;;;;8.50;6.47;;;;;;;9.86;95.22;100170.53;5111760;28;20042;-73
2022/05/08 03:01:06;;;;;;;8.30;7.00;;;;;;;9.75;94.91;100158.75;5112200;28;20023;-73
2022/05/08 03:03:32;;;;;;;10.00;7.50;;;;;;;9.72;95.07;100165.81;5111997;28;20027;-73
2022/05/08 03:05:57;;;;;;;8.52;6.70;;;;;;;9.65;96.22;100159.13;5111861;28;20024;-73
2022/05/08 03:08:23;;;;;;;12.00;7.13;;;;;;;9.68;96.16;100164.22;5111801;28;20031;-73
2022/05/08 03:13:41;;;;;;;7.78;6.45;;;;;;;9.64;96.76;100160.03;5111837;28;20095;-73
2022/05/08 03:16:09;;;;;;;9.60;7.20;;;;;;;9.75;97.16;100171.75;5111842;28;20023;-73
2022/05/08 03:18:38;;;;;;;8.80;6.57;;;;;;;9.81;97.03;100173.28;5111446;28;20028;-73
2022/05/08 03:21:04;;;;;;;8.45;7.07;;;;;;;9.87;96.70;100178.28;5111918;28;20038;-73
2022/05/08 03:23:29;;;;;;;9.63;6.82;;;;;;;9.86;96.35;100160.13;5114502;28;20032;-73
2022/05/08 03:25:55;;;;;;;11.55;7.10;;;;;;;9.87;96.12;100164.44;5115641;28;20082;-73
2022/05/08 03:28:20;;;;;;;7.90;6.72;;;;;;;9.88;96.07;100164.38;5115249;28;20088;-73
2022/05/08 03:30:46;;;;;;;9.32;6.60;;;;;;;9.95;96.65;100175.44;5115372;28;20053;-73
2022/05/08 03:33:12;;;;;;;8.18;6.72;;;;;;;9.97;96.93;100176.19;5115237;28;20035;-73
2022/05/08 03:35:38;;;;;;;8.55;6.47;;;;;;;9.97;96.46;100165.78;5115296;28;20024;-73
2022/05/08 03:38:05;;;;;;;8.45;6.53;;;;;;;10.06;96.81;100175.88;5115449;28;20023;-73
2022/05/08 03:40:35;;;;;;;10.88;6.65;;;;;;;9.97;96.66;100151.03;5114878;28;20522;-73
2022/05/08 03:43:01;;;;;;;9.73;7.43;;;;;;;10.17;96.08;100178.94;5115236;28;20035;-73
2022/05/08 03:45:27;;;;;;;8.88;6.90;;;;;;;10.22;96.08;100177.00;5115200;28;20113;-73
2022/05/08 03:47:53;;;;;;;9.35;6.80;;;;;;;10.30;96.08;100174.16;5114831;27;20051;-73
2022/05/08 03:50:22;;;;;;;10.75;7.10;;;;;;;10.37;95.63;100180.84;5115076;28;20084;-73
2022/05/08 03:52:48;;;;;;;9.73;7.03;;;;;;;10.27;95.57;100161.25;5114962;28;20080;-73
2022/05/08 03:55:15;;;;;;;10.25;7.13;;;;;;;10.42;96.11;100183.28;5115030;28;20035;-73
2022/05/08 03:57:41;;;;;;;8.85;6.82;;;;;;;10.48;96.82;100176.06;5114704;27;20034;-73
2022/05/08 04:00:08;;;;;;;10.57;7.05;;;;;;;10.68;96.33;100177.06;5114765;28;20024;-73
2022/05/08 04:02:33;;;;;;;8.98;7.07;;;;;;;10.99;95.12;100193.19;5114829;28;20119;-73
2022/05/08 04:05:00;;;;;;;9.90;7.28;;;;;;;11.21;94.06;100189.75;5115290;28;20102;-73
2022/05/08 04:07:26;;;;;;;8.27;6.88;;;;;;;11.42;92.37;100177.59;5114708;28;20488;-73
2022/05/08 04:09:51;;;;;;;10.77;8.07;;;;;;;11.64;90.88;100181.00;5114845;28;20020;-73
2022/05/08 04:12:17;;;;;;;10.82;7.70;;;;;;;12.08;88.99;100183.44;5114518;28;20032;-73
2022/05/08 04:14:42;;;;;;;10.73;7.90;;;;;;;12.56;86.50;100190.00;5114186;28;20418;-73
2022/05/08 04:17:07;;;;;;;11.63;8.00;;;;;;;12.80;84.46;100200.22;5114991;28;20110;-73
2022/05/08 04:19:33;;;;;;;11.00;7.60;;;;;;;12.92;83.35;100183.97;5114216;28;20066;-73
2022/05/08 04:24:42;;;;;;;11.32;8.30;;;;;;;13.53;81.85;100183.63;5114202;28;20113;-73
2022/05/08 04:27:08;;;;;;;12.45;8.88;;;;;;;14.15;78.98;100183.91;5114317;28;20041;-73
2022/05/08 04:29:33;;;;;;;12.70;8.55;;;;;;;14.70;75.57;100186.19;5114025;28;20671;-73
2022/05/08 04:31:59;;;;;;;12.80;8.80;;;;;;;15.12;72.65;100197.84;5114303;28;20077;-73
2022/05/08 04:34:24;;;;;;;11.13;9.52;;;;;;;15.12;71.17;100203.09;5113093;28;20069;-73
2022/05/08 04:36:50;;;;;;;10.48;8.77;;;;;;;15.47;70.75;100204.56;5114513;28;20031;-73
2022/05/08 04:39:17;;;;;;;10.70;9.60;;;;;;;16.48;67.15;100207.34;5114008;28;20055;-73
2022/05/08 04:41:43;;;;;;;13.60;10.00;;;;;;;16.69;64.90;100209.47;5113844;28;20935;-73
2022/05/08 04:44:08;;;;;;;15.93;10.48;;;;;;;16.51;64.62;100207.13;5113934;28;20031;-73
2022/05/08 04:46:34;;;;;;;12.32;10.35;;;;;;;16.27;65.48;100209.50;5113719;28;20400;-73
2022/05/08 04:48:59;;;;;;;12.75;10.10;;;;;;;16.24;66.29;100199.19;5114045;28;20106;-73
2022/05/08 04:51:25;;;;;;;13.05;10.70;;;;;;;16.74;65.17;100205.75;5113575;28;20023;-73
2022/05/08 04:53:50;;;;;;;13.90;9.88;;;;;;;17.27;62.64;100201.41;5113821;28;20024;-74
2022/05/08 04:56:15;;;;;;;12.55;10.38;;;;;;;17.80;59.40;100197.88;5113715;28;20031;-73
2022/05/08 04:58:41;;;;;;;14.55;10.00;;;;;;;18.37;56.89;100194.81;5113441;28;20115;-73
2022/05/08 05:01:06;;;;;;;11.88;9.68;;;;;;;18.23;57.07;100208.09;5113813;28;20452;-73
2022/05/08 05:03:32;;;;;;;13.07;10.02;;;;;;;18.00;58.15;100203.59;5113782;28;20034;-73
2022/05/08 05:05:57;;;;;;;11.98;10.07;;;;;;;17.85;58.83;100216.84;5113686;28;20031;-74
2022/05/08 05:08:23;;;;;;;13.82;10.50;;;;;;;18.25;58.96;100206.22;5113484;28;20032;-74
2022/05/08 05:10:48;;;;;;;11.70;9.82;;;;;;;18.92;57.65;100195.34;5113122;28;20065;-73
2022/05/08 05:13:14;;;;;;;11.25;9.82;;;;;;;19.44;55.51;100199.41;5113311;28;20031;-74
2022/05/08 05:15:39;;;;;;;11.18;9.70;;;;;;;19.96;53.70;100207.88;5113410;28;20020;-74
2022/05/08 05:18:05;;;;;;;12.40;9.25;;;;;;;20.95;50.67;100213.28;5113567;28;20144;-74
2022/05/08 05:20:30;;;;;;;15.27;9.68;;;;;;;22.52;45.38;100207.13;5113247;28;20047;-73
2022/05/08 05:23:00;;;;;;;12.43;9.82;;;;;;;23.51;42.44;100213.34;5113305;28;20024;-74
2022/05/08 05:25:26;;;;;;;12.60;9.85;;;;;;;22.61;43.96;100214.28;5113219;28;20020;-74
2022/05/08 05:27:52;;;;;;;10.90;8.63;;;;;;;21.92;46.31;100212.28;5113048;28;20068;-74
2022/05/08 05:30:17;;;;;;;12.60;8.87;;;;;;;22.07;47.42;100211.94;5113265;28;20024;-74
2022/05/08 05:32:43;;;;;;;11.55;8.45;;;;;;;22.41;46.43;100218.69;5112991;28;20520;-74
2022/05/08 05:35:08;;;;;;;11.07;9.13;;;;;;;22.72;45.77;100220.47;5113496;28;20517;-74
2022/05/08 05:37:34;;;;;;;9.88;8.13;;;;;;;23.26;44.41;100233.34;5112715;28;20376;-74
2022/05/08 05:40:00;;;;;;;10.50;8.02;;;;;;;24.60;41.66;100243.06;5112835;28;20065;-74
2022/05/08 05:42:25;;;;;;;11.30;8.35;;;;;;;26.38;37.65;100234.22;5112847;28;20051;-74
2022/05/08 05:44:51;;;;;;;12.88;8.90;;;;;;;27.00;34.91;100245.50;5112661;28;20023;-74
2022/05/08 05:50:00;;;;;;;12.13;10.20;;;;;;;24.71;37.66;100250.03;5113001;28;20062;-74
2022/05/08 05:52:25;;;;;;;13.93;10.73;;;;;;;23.97;39.14;100248.16;5112577;28;20059;-74
2022/05/08 05:54:51;;;;;;;13.43;11.05;;;;;;;23.48;40.18;100240.19;5112332;28;20031;-74
2022/05/08 05:57:16;;;;;;;14.40;12.10;;;;;;;23.38;39.68;100231.38;5112834;28;20086;-74
2022/05/08 05:59:41;;;;;;;13.98;11.82;;;;;;;23.94;38.88;100246.63;5112458;28;20024;-74
2022/05/08 06:02:08;;;;;;;13.80;10.68;;;;;;;24.89;37.39;100234.94;5112701;28;20039;-78
2022/05/08 06:04:33;;;;;;;15.50;11.38;;;;;;;25.32;37.25;100242.22;5111041;28;20028;-79
2022/05/08 06:06:59;;;;;;;16.17;12.02;;;;;;;25.30;35.86;100249.56;5112557;28;20114;-79
2022/05/08 06:09:24;;;;;;;13.80;10.20;;;;;;;25.46;36.09;100234.72;5111035;28;20020;-79
2022/05/08 06:11:50;;;;;;;12.23;10.88;;;;;;;25.30;35.31;100230.91;5110983;28;20453;-79
2022/05/08 06:14:15;;;;;;;11.57;10.38;;;;;;;26.26;34.72;100243.50;5111219;28;20088;-79
2022/05/08 06:16:42;;;;;;;12.32;10.25;;;;;;;27.34;32.21;100252.59;5112045;28;20062;-78
2022/05/08 06:19:08;;;;;;;14.77;10.70;;;;;;;27.16;32.13;100247.41;5112479;28;20111;-78
2022/05/08 06:21:33;;;;;;;13.13;10.30;;;;;;;26.93;32.65;100254.34;5112157;27;20391;-78
2022/05/08 06:23:59;;;;;;;14.07;9.73;;;;;;;26.38;32.35;100244.91;5112253;28;20036;-78
2022/05/08 06:26:24;;;;;;;14.00;9.88;;;;;;;26.14;33.51;100242.91;5112514;28;20088;-78
2022/05/08 06:28:50;;;;;;;12.13;9.02;;;;;;;26.99;32.45;100251.84;5112164;28;20353;-78
2022/05/08 06:31:17;;;;;;;11.00;8.55;;;;;;;28.51;30.13;100259.41;5112258;28;20093;-78
2022/05/08 06:33:46;;;;;;;14.07;9.52;;;;;;;28.45;29.03;100260.94;5112185;28;20031;-79
2022/05/08 06:36:12;;;;;;;9.18;8.23;;;;;;;28.03;29.56;100255.84;5112297;28;20462;-78
2022/05/08 06:38:38;;;;;;;9.80;8.63;;;;;;;28.82;28.63;100264.81;5111782;28;20103;-78
2022/05/08 06:41:03;;;;;;;10.50;9.07;;;;;;;30.75;26.74;100255.53;5112328;28;20393;-78
2022/05/08 06:43:29;;;;;;;13.32;9.10;;;;;;;30.68;26.38;100263.50;5112264;28;20059;-78
2022/05/08 06:45:54;;;;;;;13.30;9.60;;;;;;;29.01;28.08;100264.41;5111919;28;20127;-78
2022/05/08 06:48:19;;;;;;;11.38;9.50;;;;;;;26.90;30.84;100258.16;5111935;28;20066;-78
2022/05/08 06:50:45;;;;;;;11.55;9.75;;;;;;;25.41;33.46;100264.50;5111687;28;20020;-78
2022/05/08 06:53:10;;;;;;;10.88;9.77;;;;;;;24.30;36.28;100257.44;5111929;28;20023;-78
2022/05/08 06:55:36;;;;;;;12.65;9.65;;;;;;;23.90;37.14;100266.50;5111984;28;20504;-78
2022/05/08 06:58:02;;;;;;;12.43;9.75;;;;;;;23.81;37.63;100272.69;5114365;28;20027;-78
2022/05/08 07:03:12;;;;;;;12.18;9.95;;;;;;;23.04;39.71;100268.09;5116219;28;20031;-78
2022/05/08 07:05:43;;;;;;;14.85;11.38;;;;;;;22.41;41.26;100263.78;5115587;28;20024;-78
2022/05/08 07:08:09;;;;;;;14.15;10.40;;;;;;;22.05;42.55;100267.78;5092818;28;20075;-78
2022/05/08 07:10:34;;;;;;;15.73;11.35;;;;;;;21.92;43.46;100277.75;5092622;28;20118;-78
2022/05/08 07:12:59;;;;;;;15.48;11.38;;;;;;;21.61;44.12;100255.56;5092886;28;20039;-77
2022/05/08 07:15:25;;;;;;;15.30;10.48;;;;;;;21.88;44.25;100261.25;5092849;28;20028;-74
2022/05/08 07:17:50;;;;;;;15.45;12.30;;;;;;;22.05;44.34;100265.13;5092559;28;20072;-73
2022/05/08 07:20:16;;;;;;;15.38;11.57;;;;;;;21.97;45.01;100269.41;5092689;28;20122;-74
2022/05/08 07:22:41;;;;;;;12.65;11.30;;;;;;;21.74;45.68;100277.44;5092552;28;20341;-74
2022/05/08 07:25:07;;;;;;;15.88;12.13;;;;;;;21.62;46.98;100263.44;5092758;28;20031;-74
2022/05/08 07:27:36;;;;;;;15.65;12.45;;;;;;;21.62;47.49;100265.25;5092707;28;20040;-74
2022/05/08 07:30:03;;;;;;;19.35;14.60;;;;;;;21.37;48.21;100283.16;5092532;28;20131;-74
2022/05/08 07:32:28;;;;;;;18.40;14.18;;;;;;;21.06;48.87;100284.75;5092388;28;20273;-74
2022/05/08 07:37:37;;;;;;;18.35;13.88;;;;;;;21.00;48.58;100279.13;5092333;28;20117;-74
2022/05/08 07:40:03;;;;;;;15.38;13.75;;;;;;;22.22;46.29;100286.75;5112332;28;20491;-74
2022/05/08 07:42:28;;;;;;;15.55;12.95;;;;;;;25.65;39.63;100285.22;5115354;28;20032;-75
2022/05/08 07:44:54;;;;;;;19.02;13.70;;;;;;;26.07;37.21;100279.25;5114776;28;20117;-74
2022/05/08 07:47:21;;;;;;;16.60;13.80;;;;;;;25.61;37.60;100287.34;5115040;28;20079;-74
2022/05/08 07:49:46;;;;;;;14.52;13.07;;;;;;;24.99;38.64;100299.69;5115070;28;20027;-73
2022/05/08 07:52:11;;;;;;;16.02;13.23;;;;;;;23.57;41.69;100289.03;5114904;28;20027;-73
2022/05/08 07:54:37;;;;;;;15.68;13.98;;;;;;;22.92;44.17;100301.91;5114890;28;20035;-74
2022/05/08 07:57:03;;;;;;;18.65;12.30;;;;;;;22.60;44.88;100292.25;5115032;28;20027;-73
2022/05/08 07:59:28;;;;;;;13.75;11.57;;;;;;;22.82;45.34;100287.72;5114892;28;20035;-73
2022/05/08 08:01:54;;;;;;;14.15;11.35;;;;;;;23.83;44.06;100302.63;5114541;28;20035;-73
2022/05/08 08:04:19;;;;;;;15.63;11.30;;;;;;;27.49;35.65;100290.25;5115317;28;20388;-74
2022/05/08 08:06:45;;;;;;;12.25;9.98;;;;;;;27.85;33.71;100307.72;5114731;28;20035;-74
2022/05/08 08:09:10;;;;;;;12.30;11.00;;;;;;;27.13;34.68;100298.53;5114606;28;20030;-74
2022/05/08 08:11:38;;;;;;;10.93;8.75;;;;;;;28.72;32.45;100302.56;5114582;28;20020;-74
2022/05/08 08:14:04;;;;;;;12.45;9.05;;;;;;;29.43;30.92;100314.13;5114640;28;20034;-74
2022/05/08 08:16:29;;;;;;;10.30;9.25;;;;;;;28.66;32.11;100311.31;5114506;28;20020;-74
2022/05/08 08:18:56;;;;;;;10.98;7.90;;;;;;;27.38;33.84;100312.81;5114392;28;20027;-74
2022/05/08 08:21:23;;;;;;;11.45;8.60;;;;;;;27.75;34.02;100320.41;5114612;28;20122;-74
2022/05/08 08:23:49;;;;;;;16.27;11.35;;;;;;;26.60;34.87;100307.66;5114334;28;20032;-74
2022/05/08 08:26:15;;;;;;;15.90;9.77;;;;;;;25.57;37.98;100330.47;5114503;28;20027;-74
2022/05/08 08:28:41;;;;;;;14.50;10.88;;;;;;;24.78;39.07;100331.06;5114039;28;20042;-74
2022/05/08 08:31:10;;;;;;;13.55;10.68;;;;;;;23.88;41.54;100337.63;5114077;28;20020;-74
2022/05/08 08:33:40;;;;;;;11.25;9.95;;;;;;;23.37;43.64;100331.53;5114221;28;20525;-73
2022/05/08 08:36:07;;;;;;;13.90;11.90;;;;;;;23.22;44.85;100337.38;5114336;28;20019;-73
2022/05/08 08:38:33;;;;;;;12.50;10.40;;;;;;;23.19;45.87;100343.81;5114103;28;20437;-73
2022/05/08 08:41:04;;;;;;;13.23;11.00;;;;;;;23.17;46.30;100340.44;5113750;28;20032;-73
2022/05/08 08:47:42;;;;;;;13.65;11.23;;;;;;;23.03;47.14;100338.16;5113943;28;20027;-74
2022/05/08 08:49:01;;;;;;;14.90;12.98;;;;;;;22.24;49.13;100351.97;5113919;28;20073;-74
2022/05/08 08:51:27;;;;;;;16.13;12.88;;;;;;;21.88;49.96;100343.44;5113933;28;20456;-74
2022/05/08 08:53:54;;;;;;;15.40;12.85;;;;;;;21.62;50.80;100353.56;5113498;28;20031;-74
2022/05/08 08:56:20;;;;;;;13.60;12.10;;;;;;;21.32;51.84;100329.50;5113966;28;20034;-74
2022/05/08 08:58:46;;;;;;;14.13;11.27;;;;;;;21.47;53.09;100346.00;5113622;28;20402;-74
2022/05/08 09:01:14;;;;;;;15.32;11.55;;;;;;;21.57;52.87;100361.00;5106337;28;20024;-74
2022/05/08 09:03:39;;;;;;;13.65;10.32;;;;;;;21.71;52.98;100357.25;5093293;28;20020;-75
2022/05/08 09:06:08;;;;;;;15.13;11.32;;;;;;;21.76;52.01;100356.88;5093034;28;20484;-75
2022/05/08 09:08:35;;;;;;;14.35;10.27;;;;;;;21.74;51.62;100343.72;5092940;28;20085;-75
2022/05/08 09:11:01;;;;;;;11.55;10.27;;;;;;;21.76;52.11;100348.94;5100460;28;20046;-75
2022/05/08 09:13:29;;;;;;;14.07;12.30;;;;;;;21.45;52.21;100346.13;5113262;28;20102;-74
2022/05/08 09:16:06;;;;;;;13.60;11.88;;;;;;;21.16;54.18;100351.09;5111725;28;20380;-73
2022/05/08 09:18:48;;;;;;;19.65;12.70;;;;;;;20.90;55.29;100348.69;5113237;28;20085;-74
2022/05/08 09:24:13;;;;;;;16.38;12.55;;;;;;;20.62;56.51;100352.66;5113332;28;20459;-75
2022/05/08 09:26:39;;;;;;;18.55;13.30;;;;;;;20.49;56.67;100336.03;5112959;28;20464;-75
2022/05/08 09:29:05;;;;;;;15.82;13.93;;;;;;;20.29;56.93;100337.50;5112719;28;20027;-74
2022/05/08 09:31:41;;;;;;;15.27;12.70;;;;;;;20.23;58.31;100348.56;5112647;28;20064;-74
2022/05/08 09:34:07;;;;;;;16.30;13.80;;;;;;;20.15;58.65;100338.56;5113086;28;20054;-74
2022/05/08 09:36:44;;;;;;;14.20;12.77;;;;;;;20.25;59.24;100354.56;5113072;28;20023;-75
2022/05/08 09:39:23;;;;;;;13.52;11.75;;;;;;;20.38;58.82;100339.44;5112863;28;20024;-75
2022/05/08 09:41:48;;;;;;;10.88;9.70;;;;;;;20.37;58.07;100329.84;5112432;28;20383;-74
2022/05/08 09:44:15;;;;;;;11.15;9.43;;;;;;;20.52;58.01;100332.28;5113173;28;20106;-73
2022/05/08 09:46:45;;;;;;;11.90;9.68;;;;;;;20.59;56.68;100336.16;5112285;28;20106;-73
2022/05/08 09:49:17;;;;;;;15.57;9.13;;;;;;;20.53;55.24;100356.00;5112841;28;20035;-74
2022/05/08 09:51:43;;;;;;;9.30;8.32;;;;;;;20.31;55.74;100324.16;5112197;28;20042;-73
2022/05/08 09:54:09;;;;;;;11.60;7.57;;;;;;;20.34;55.71;100330.06;5112538;28;20032;-74
2022/05/08 09:56:35;;;;;;;10.80;8.48;;;;;;;20.31;55.02;100340.91;5112266;28;20023;-74
2022/05/08 09:59:01;;;;;;;10.80;8.07;;;;;;;20.43;56.41;100345.22;5112445;28;20072;-74
2022/05/08 10:01:27;;;;;;;9.40;8.30;;;;;;;20.60;55.92;100341.31;5112381;28;20050;-75
2022/05/08 10:03:55;;;;;;;11.45;8.65;;;;;;;20.63;56.22;100333.16;5112249;28;20042;-75
2022/05/08 10:06:21;;;;;;;10.23;8.88;;;;;;;20.46;56.05;100328.28;5111352;28;20027;-75
2022/05/08 10:08:48;;;;;;;10.07;8.40;;;;;;;20.56;56.21;100329.31;5111685;28;20031;-74
2022/05/08 10:14:04;;;;;;;10.10;8.73;;;;;;;20.42;55.14;100326.84;5112205;28;20039;-75
2022/05/08 10:16:48;;;;;;;11.55;8.02;;;;;;;20.38;54.77;100341.25;5112251;28;20361;-75
2022/05/08 10:19:19;;;;;;;10.10;8.52;;;;;;;20.37;55.33;100348.34;5112022;28;20027;-75
2022/05/08 10:21:57;;;;;;;12.15;9.15;;;;;;;20.56;56.16;100341.66;5112165;28;20054;-75
2022/05/08 10:24:31;;;;;;;11.02;8.93;;;;;;;20.48;56.78;100333.44;5112592;28;20035;-75
2022/05/08 10:27:26;;;;;;;12.88;10.00;;;;;;;20.43;58.34;100345.22;5112037;28;20023;-75
2022/05/08 10:29:52;;;;;;;11.43;9.05;;;;;;;20.34;56.95;100342.47;5110818;28;20058;-76
2022/05/08 10:32:33;;;;;;;10.75;8.40;;;;;;;20.47;57.36;100339.72;5113323;28;20024;-75
2022/05/08 10:35:12;;;;;;;;;;;;;;;20.64;56.24;100332.19;5116778;28;20020;-75
2022/05/08 10:37:39;;;;;;;10.07;7.00;;;;;;;20.89;56.74;100340.84;5116436;28;19912;-74
2022/05/08 10:40:25;;;;;;;10.38;8.38;;;;;;;21.13;55.98;100340.72;5115890;28;20027;-75
2022/05/08 10:42:55;;;;;;;9.07;8.18;;;;;;;21.06;56.62;100326.28;5116151;28;20031;-75
2022/05/08 10:45:33;;;;;;;9.60;7.25;;;;;;;21.20;56.70;100333.16;5116177;28;20384;-74
2022/05/08 10:48:08;;;;;;;10.63;7.47;;;;;;;21.36;55.61;100337.13;5116061;28;20050;-75
2022/05/08 10:50:34;;;;;;;7.97;7.18;;;;;;;21.38;53.94;100339.63;5115858;27;20031;-74
2022/05/08 10:52:59;;;;;;;6.78;6.05;;;;;;;21.39;52.81;100338.66;5115778;28;20464;-75
2022/05/08 10:55:26;;;;;;;7.63;5.90;;;;;;;21.37;52.68;100338.78;5116204;28;20073;-75
2022/05/08 10:57:55;;;;;;;10.23;7.00;;;;;;;21.28;52.96;100343.94;5115834;28;20076;-74
2022/05/08 11:00:25;;;;;;;8.13;6.00;;;;;;;21.14;53.82;100343.25;5115977;28;20024;-74
2022/05/08 11:02:55;;;;;;;9.85;6.75;;;;;;;21.06;52.93;100334.22;5115559;28;20538;-74
2022/05/08 11:05:28;;;;;;;9.27;6.03;;;;;;;20.91;53.01;100341.59;5115725;28;20023;-75
2022/05/08 11:07:58;;;;;;;11.57;6.25;;;;;;;20.67;54.03;100342.53;5115772;28;20027;-74
2022/05/08 11:10:24;;;;;;;10.43;6.65;;;;;;;20.53;52.99;100337.47;5113846;28;20052;-74
2022/05/08 11:13:06;;;;;;;7.22;5.72;;;;;;;20.54;53.31;100338.31;5115436;28;20177;-74
2022/05/08 11:15:31;;;;;;;9.63;6.10;;;;;;;20.81;54.32;100332.66;5115785;27;20019;-74
2022/05/08 11:18:02;;;;;;;7.22;6.53;;;;;;;21.26;54.56;100330.81;5115542;28;20495;-75
2022/05/08 11:20:28;;;;;;;8.00;6.45;;;;;;;21.37;53.60;100328.19;5096135;27;20028;-74
2022/05/08 11:22:56;;;;;;;8.20;6.32;;;;;;;21.26;53.61;100335.28;5094934;28;20533;-74
2022/05/08 11:25:21;;;;;;;9.63;5.75;;;;;;;21.04;52.85;100325.56;5095121;28;20020;-74
2022/05/08 11:27:51;;;;;;;7.47;6.45;;;;;;;21.01;52.74;100337.25;5095116;28;20491;-75
2022/05/08 11:30:26;;;;;;;10.45;6.50;;;;;;;20.70;53.31;100316.81;5094904;28;20486;-74
2022/05/08 11:38:22;;;;;;;10.55;8.13;;;;;;;20.73;53.20;100325.34;5032159;28;20151;-74
2022/05/08 11:40:49;;;;;;;8.82;6.38;;;;;;;20.85;53.42;100321.72;5031885;28;20095;-75
2022/05/08 11:43:40;;;;;;;7.65;6.65;;;;;;;20.84;53.63;100330.63;5031374;28;20083;-74
2022/05/08 11:46:07;;;;;;;7.88;6.85;;;;;;;20.80;54.61;100326.53;5031780;28;20495;-74
2022/05/08 11:48:40;;;;;;;10.43;6.18;;;;;;;20.74;55.18;100324.38;5031773;28;20064;-74
2022/05/08 11:51:09;;;;;;;10.52;6.40;;;;;;;20.74;53.89;100326.19;5031612;28;20033;-74
2022/05/08 11:53:43;;;;;;;7.50;5.97;;;;;;;20.79;54.71;100332.81;5031909;28;20033;-74